Time;durP1;ratioP1;P1;durP2;ratioP2;P2;SDS_P1;SDS_P2;PMS_P1;PMS_P2;Temp;Humidity;BMP_temperature;BMP_pressure;BME280_temperature;BME280_humidity;BME280_pressure;Samples;Min_cycle;Max_cycle;Signal;HPM_P1;HPM_P2
2022/10/30 00:00:33;;;;;;;23.70;9.38;;;13.80;99.90;;;;;;5141422;27;20061;-76
2022/10/30 00:02:58;;;;;;;20.38;9.75;;;13.80;99.90;;;;;;5107025;27;20062;-76
2022/10/30 00:05:24;;;;;;;22.83;10.00;;;14.30;99.90;;;;;;5107176;27;20394;-78
2022/10/30 00:07:50;;;;;;;21.17;10.65;;;13.90;99.90;;;;;;5123785;27;20084;-75
2022/10/30 00:10:16;;;;;;;26.67;10.45;;;13.90;99.90;;;;;;5107876;27;20037;-78
2022/10/30 00:12:42;;;;;;;18.80;10.85;;;13.90;99.90;;;;;;5123757;27;20031;-76
2022/10/30 00:15:09;;;;;;;22.02;10.35;;;14.00;99.90;;;;;;5143789;27;20127;-74
2022/10/30 00:17:34;;;;;;;23.88;11.02;;;14.00;99.90;;;;;;5124072;27;20049;-75
2022/10/30 00:20:00;;;;;;;20.52;9.73;;;14.20;99.90;;;;;;5106217;27;20042;-77
2022/10/30 00:22:26;;;;;;;22.20;11.38;;;14.10;99.90;;;;;;5143265;27;20513;-75
2022/10/30 00:24:51;;;;;;;24.23;10.98;;;14.10;99.90;;;;;;5106546;27;20042;-78
2022/10/30 00:27:17;;;;;;;22.85;11.98;;;14.10;99.90;;;;;;5150920;27;20035;-77
2022/10/30 00:29:43;;;;;;;15.73;10.38;;;14.10;99.90;;;;;;5119859;27;20039;-75
2022/10/30 00:32:09;;;;;;;26.83;11.15;;;14.10;99.90;;;;;;5143254;27;20058;-76
2022/10/30 00:34:36;;;;;;;22.83;11.20;;;14.10;99.90;;;;;;5117793;27;20047;-76
2022/10/30 00:37:01;;;;;;;22.70;10.48;;;14.10;99.90;;;;;;5142659;27;20043;-75
2022/10/30 00:39:27;;;;;;;19.23;9.73;;;14.00;99.90;;;;;;5107093;27;20031;-78
2022/10/30 00:41:52;;;;;;;19.40;11.23;;;14.00;99.90;;;;;;5148535;27;20065;-74
2022/10/30 00:44:34;;;;;;;26.88;14.05;;;14.50;99.90;;;;;;5123248;27;20082;-78
2022/10/30 00:47:33;;;;;;;18.48;10.50;;;14.10;99.90;;;;;;5108636;27;20030;-78
2022/10/30 00:50:02;;;;;;;19.25;10.27;;;14.00;99.90;;;;;;5123808;27;20046;-77
2022/10/30 00:52:31;;;;;;;18.90;9.80;;;14.00;99.90;;;;;;5124082;27;20050;-77
2022/10/30 00:55:02;;;;;;;25.27;10.82;;;14.30;99.90;;;;;;5141968;27;20030;-77
2022/10/30 00:57:29;;;;;;;18.83;9.52;;;14.10;99.90;;;;;;5113887;27;20390;-78
2022/10/30 00:59:55;;;;;;;21.83;10.45;;;13.90;99.90;;;;;;5146431;27;20102;-78
2022/10/30 01:02:21;;;;;;;24.17;11.00;;;13.90;99.90;;;;;;5110804;27;20031;-77
2022/10/30 01:04:49;;;;;;;19.27;9.90;;;13.60;99.90;;;;;;5143098;27;20049;-76
2022/10/30 01:07:15;;;;;;;22.40;10.52;;;13.90;99.90;;;;;;5148572;27;20038;-78
2022/10/30 01:09:42;;;;;;;23.40;10.27;;;14.10;99.90;;;;;;5126054;27;20047;-79
2022/10/30 01:12:08;;;;;;;25.60;9.43;;;13.80;99.90;;;;;;5128404;27;20095;-76
2022/10/30 01:14:37;;;;;;;21.83;10.02;;;13.80;99.90;;;;;;5108566;27;20043;-78
2022/10/30 01:17:18;;;;;;;19.98;10.38;;;14.70;99.90;;;;;;5152215;27;20034;-75
2022/10/30 01:20:09;;;;;;;18.67;9.50;;;13.70;99.90;;;;;;5108910;27;20425;-77
2022/10/30 01:22:55;;;;;;;18.50;9.88;;;13.70;99.90;;;;;;5125246;27;20335;-75
2022/10/30 01:25:39;;;;;;;15.77;10.10;;;13.70;99.90;;;;;;5128174;27;20077;-75
2022/10/30 01:28:14;;;;;;;15.73;9.30;;;13.70;99.90;;;;;;5120667;27;20099;-75
2022/10/30 01:30:50;;;;;;;15.05;9.65;;;13.70;99.90;;;;;;5129708;27;20288;-77
2022/10/30 01:33:28;;;;;;;19.60;9.68;;;13.70;99.90;;;;;;5142905;27;20038;-77
2022/10/30 01:36:17;;;;;;;20.90;9.90;;;13.70;99.90;;;;;;5150225;27;20505;-77
2022/10/30 01:39:07;;;;;;;21.52;10.93;;;13.70;99.90;;;;;;5125112;27;20055;-76
2022/10/30 01:41:33;;;;;;;17.00;8.90;;;13.60;99.90;;;;;;5108978;27;20074;-77
2022/10/30 01:44:04;;;;;;;19.80;9.63;;;13.90;99.90;;;;;;5120453;27;20077;-76
2022/10/30 01:46:45;;;;;;;21.23;10.40;;;13.70;99.90;;;;;;5107175;27;20038;-75
2022/10/30 01:49:40;;;;;;;20.17;10.55;;;13.60;99.90;;;;;;5142780;27;20446;-75
2022/10/30 01:52:38;;;;;;;16.65;8.68;;;13.60;99.90;;;;;;5124565;27;20130;-76
2022/10/30 01:55:20;;;;;;;18.27;10.35;;;13.60;99.90;;;;;;5097654;27;20047;-76
2022/10/30 01:57:50;;;;;;;17.52;10.93;;;13.60;99.90;;;;;;5109215;27;20043;-78
2022/10/30 02:00:18;;;;;;;18.42;9.88;;;13.50;99.90;;;;;;5147531;27;20140;-76
2022/10/30 02:02:45;;;;;;;15.95;10.18;;;13.50;99.90;;;;;;5108195;27;20043;-78
2022/10/30 02:05:16;;;;;;;21.65;9.90;;;14.10;99.90;;;;;;5125602;27;20111;-74
2022/10/30 02:07:42;;;;;;;22.73;10.35;;;13.50;99.90;;;;;;5124253;27;20035;-75
2022/10/30 02:10:10;;;;;;;17.67;10.82;;;13.50;99.90;;;;;;5109513;27;20042;-75
2022/10/30 02:12:36;;;;;;;21.25;10.07;;;13.50;99.90;;;;;;5124587;27;20561;-75
2022/10/30 02:15:02;;;;;;;19.52;9.75;;;13.50;99.90;;;;;;5130212;27;20038;-75
2022/10/30 02:17:28;;;;;;;16.25;9.77;;;13.40;99.90;;;;;;5109563;27;20041;-77
2022/10/30 02:19:54;;;;;;;25.48;11.15;;;13.40;99.90;;;;;;5146865;27;20426;-74
2022/10/30 02:22:20;;;;;;;23.83;10.00;;;13.50;99.90;;;;;;5127506;27;20541;-77
2022/10/30 02:24:46;;;;;;;20.65;10.48;;;13.40;99.90;;;;;;5123871;27;20073;-75
2022/10/30 02:27:11;;;;;;;20.63;9.95;;;13.40;99.90;;;;;;5143741;27;20070;-77
2022/10/30 02:29:37;;;;;;;20.63;10.45;;;13.80;99.90;;;;;;5115141;27;20051;-77
2022/10/30 02:32:03;;;;;;;14.65;9.52;;;13.40;99.90;;;;;;5145046;27;20050;-79
2022/10/30 02:34:29;;;;;;;19.73;9.82;;;13.40;99.90;;;;;;5144521;27;20039;-77
2022/10/30 02:36:54;;;;;;;20.98;9.82;;;13.40;99.90;;;;;;5109078;27;20031;-76
2022/10/30 02:39:20;;;;;;;18.90;9.82;;;13.40;99.90;;;;;;5126273;27;20074;-78
2022/10/30 02:41:46;;;;;;;18.63;9.82;;;13.40;99.90;;;;;;5123691;27;20112;-78
2022/10/30 02:44:12;;;;;;;20.15;10.30;;;13.70;99.90;;;;;;5108664;27;20038;-77
2022/10/30 02:46:39;;;;;;;20.65;9.93;;;13.40;99.90;;;;;;5124212;27;20031;-77
2022/10/30 02:49:05;;;;;;;16.15;9.90;;;13.40;99.90;;;;;;5144497;27;20497;-74
2022/10/30 02:51:32;;;;;;;19.20;10.45;;;13.40;99.90;;;;;;5126364;27;20357;-78
2022/10/30 02:53:58;;;;;;;18.48;10.10;;;14.30;99.90;;;;;;5124537;27;20628;-77
2022/10/30 02:56:25;;;;;;;19.58;9.65;;;13.30;99.90;;;;;;5125607;27;20156;-77
2022/10/30 02:58:50;;;;;;;20.63;10.75;;;13.30;99.90;;;;;;5123322;27;20043;-77
2022/10/30 03:01:18;;;;;;;16.88;9.00;;;13.60;99.90;;;;;;5143561;27;20041;-78
2022/10/30 03:03:45;;;;;;;19.33;9.38;;;13.00;99.90;;;;;;5124379;27;20047;-78
2022/10/30 03:06:14;;;;;;;15.80;9.15;;;13.30;99.90;;;;;;5107372;27;20046;-75
2022/10/30 03:08:40;;;;;;;21.65;9.68;;;13.30;99.90;;;;;;5107285;27;20716;-75
2022/10/30 03:11:10;;;;;;;22.33;10.35;;;13.30;99.90;;;;;;5110733;27;20100;-77
2022/10/30 03:13:39;;;;;;;30.75;10.73;;;14.30;99.90;;;;;;5148521;27;20046;-75
2022/10/30 03:16:28;;;;;;;15.48;10.07;;;13.20;99.90;;;;;;5139112;27;20042;-75
2022/10/30 03:18:54;;;;;;;21.75;10.27;;;13.20;99.90;;;;;;5146452;27;20039;-74
2022/10/30 03:21:23;;;;;;;23.15;10.52;;;13.10;99.90;;;;;;5140080;27;20070;-74
2022/10/30 03:23:49;;;;;;;17.63;9.98;;;13.10;99.90;;;;;;5107063;27;20070;-77
2022/10/30 03:26:15;;;;;;;20.25;10.15;;;13.10;99.90;;;;;;5143266;27;20481;-75
2022/10/30 03:28:44;;;;;;;21.92;10.68;;;13.10;99.90;;;;;;5088115;27;20082;-76
2022/10/30 03:31:12;;;;;;;17.98;9.77;;;13.10;99.90;;;;;;5142901;27;20078;-74
2022/10/30 03:33:38;;;;;;;25.17;10.70;;;13.80;99.90;;;;;;5141527;27;20459;-78
2022/10/30 03:36:06;;;;;;;24.33;11.38;;;13.10;99.90;;;;;;5136761;27;20031;-76
2022/10/30 03:38:32;;;;;;;20.92;11.35;;;13.10;99.90;;;;;;5143558;27;20486;-75
2022/10/30 03:40:58;;;;;;;17.27;10.82;;;13.10;99.90;;;;;;5107310;27;20043;-76
2022/10/30 03:43:24;;;;;;;21.02;11.50;;;13.40;99.90;;;;;;5126185;27;20039;-74
2022/10/30 03:45:52;;;;;;;15.73;10.80;;;13.50;99.90;;;;;;5122499;27;20054;-74
2022/10/30 03:48:19;;;;;;;20.88;11.38;;;13.10;99.90;;;;;;5143589;27;20054;-76
2022/10/30 03:50:46;;;;;;;21.65;11.65;;;13.10;99.90;;;;;;5105296;27;20051;-77
2022/10/30 03:53:12;;;;;;;19.17;11.05;;;13.10;99.90;;;;;;5108514;27;20470;-76
2022/10/30 03:55:38;;;;;;;22.63;10.48;;;13.40;99.90;;;;;;5122812;28;20080;-76
2022/10/30 03:58:04;;;;;;;18.58;10.90;;;13.10;99.90;;;;;;5111355;27;20039;-78
2022/10/30 04:00:30;;;;;;;21.55;10.63;;;13.10;99.90;;;;;;5138914;27;20042;-78
2022/10/30 04:02:55;;;;;;;21.73;10.98;;;13.70;99.90;;;;;;5105765;27;20580;-77
2022/10/30 04:05:23;;;;;;;19.77;11.13;;;13.10;99.90;;;;;;5142352;27;20027;-78
2022/10/30 04:07:58;;;;;;;19.58;11.50;;;13.10;99.90;;;;;;5127593;27;20469;-78
2022/10/30 04:10:24;;;;;;;21.58;11.60;;;13.00;99.90;;;;;;5121063;27;20039;-74
2022/10/30 04:12:51;;;;;;;21.00;11.40;;;13.00;99.90;;;;;;5120702;27;20047;-77
2022/10/30 04:15:18;;;;;;;18.27;10.95;;;13.70;99.90;;;;;;5140953;27;20057;-77
2022/10/30 04:17:50;;;;;;;25.88;12.48;;;14.10;99.90;;;;;;5111346;28;20608;-77
2022/10/30 04:20:20;;;;;;;24.92;11.60;;;13.00;99.90;;;;;;5143379;27;20095;-76
2022/10/30 04:22:46;;;;;;;23.05;11.95;;;13.10;99.90;;;;;;5139675;27;20038;-74
2022/10/30 04:25:12;;;;;;;25.40;13.15;;;13.20;99.90;;;;;;5127348;28;20050;-77
2022/10/30 04:27:42;;;;;;;21.80;11.35;;;13.00;99.90;;;;;;5139049;27;20047;-74
2022/10/30 04:30:10;;;;;;;17.65;11.02;;;13.10;99.90;;;;;;5147871;27;20047;-77
2022/10/30 04:32:36;;;;;;;25.85;12.20;;;13.10;99.90;;;;;;5123684;27;20394;-78
2022/10/30 04:35:03;;;;;;;19.48;11.98;;;13.00;99.90;;;;;;5126665;27;20035;-75
2022/10/30 04:37:29;;;;;;;24.55;12.43;;;13.00;99.90;;;;;;5127980;27;20043;-75
2022/10/30 04:39:54;;;;;;;21.27;10.88;;;13.00;99.90;;;;;;5143315;27;20398;-78
2022/10/30 04:42:20;;;;;;;27.17;11.20;;;13.00;99.90;;;;;;5113099;27;20039;-76
2022/10/30 04:44:45;;;;;;;17.83;11.13;;;13.00;99.90;;;;;;5123751;27;20042;-78
2022/10/30 04:47:11;;;;;;;18.70;10.88;;;13.00;99.90;;;;;;5149780;27;20451;-77
2022/10/30 04:49:36;;;;;;;25.55;11.77;;;13.00;99.90;;;;;;5124032;27;20043;-76
2022/10/30 04:52:02;;;;;;;19.10;11.52;;;13.10;99.90;;;;;;5144600;27;20175;-78
2022/10/30 04:54:28;;;;;;;19.08;10.60;;;13.00;99.90;;;;;;5127334;27;20076;-78
2022/10/30 04:56:53;;;;;;;14.90;10.00;;;13.00;99.90;;;;;;5133569;27;20035;-77
2022/10/30 04:59:19;;;;;;;17.00;10.38;;;13.00;99.90;;;;;;5131878;27;20475;-76
2022/10/30 05:01:45;;;;;;;16.83;10.45;;;13.00;99.90;;;;;;5148046;27;20745;-77
2022/10/30 05:04:11;;;;;;;25.83;11.38;;;13.10;99.90;;;;;;5142907;27;20502;-75
2022/10/30 05:06:37;;;;;;;19.13;10.25;;;13.00;99.90;;;;;;5139855;27;20047;-77
2022/10/30 05:09:03;;;;;;;18.95;10.73;;;13.00;99.90;;;;;;5127326;27;20406;-77
2022/10/30 05:11:29;;;;;;;17.55;11.00;;;13.00;99.90;;;;;;5143513;27;20035;-78
2022/10/30 05:13:55;;;;;;;27.00;11.75;;;13.00;99.90;;;;;;5113489;27;20047;-77
2022/10/30 05:16:20;;;;;;;31.02;11.40;;;13.00;99.90;;;;;;5124045;27;20092;-77
2022/10/30 05:18:46;;;;;;;18.85;10.68;;;13.00;99.90;;;;;;5113434;27;20043;-77
2022/10/30 05:21:12;;;;;;;17.40;9.52;;;13.00;99.90;;;;;;5123844;27;20043;-76
2022/10/30 05:23:37;;;;;;;23.05;11.65;;;13.60;99.90;;;;;;5149167;27;20051;-77
2022/10/30 05:26:03;;;;;;;19.08;10.85;;;12.90;99.90;;;;;;5144022;27;20086;-78
2022/10/30 05:28:29;;;;;;;17.13;11.07;;;13.00;99.90;;;;;;5123574;27;20524;-77
2022/10/30 05:30:55;;;;;;;17.83;11.13;;;12.90;99.90;;;;;;5130208;27;20054;-78
2022/10/30 05:33:20;;;;;;;16.88;9.60;;;12.90;99.90;;;;;;5124651;27;20103;-78
2022/10/30 05:35:46;;;;;;;17.20;10.90;;;12.90;99.90;;;;;;5148407;27;20110;-76
2022/10/30 05:38:12;;;;;;;19.02;10.90;;;12.90;99.90;;;;;;5142920;27;20035;-75
2022/10/30 05:40:38;;;;;;;23.05;11.18;;;12.90;99.90;;;;;;5148628;27;20418;-78
2022/10/30 05:43:04;;;;;;;21.27;9.40;;;12.80;99.90;;;;;;5143119;27;20487;-77
2022/10/30 05:45:30;;;;;;;23.30;10.98;;;12.90;99.90;;;;;;5141836;27;20060;-77
2022/10/30 05:48:02;;;;;;;18.77;10.07;;;12.80;99.90;;;;;;5112611;27;20038;-78
2022/10/30 05:50:28;;;;;;;16.10;10.15;;;12.80;99.90;;;;;;5122914;27;20071;-75
2022/10/30 05:52:58;;;;;;;18.23;10.35;;;12.80;99.90;;;;;;5148995;27;20050;-75
2022/10/30 05:55:24;;;;;;;17.33;9.70;;;12.80;99.90;;;;;;5123382;27;20613;-76
2022/10/30 05:57:53;;;;;;;20.00;10.43;;;12.70;99.90;;;;;;5129930;27;20125;-78
2022/10/30 06:00:19;;;;;;;18.73;9.93;;;12.70;99.90;;;;;;5141781;27;20035;-77
2022/10/30 06:02:45;;;;;;;22.92;10.98;;;12.70;99.90;;;;;;5106396;27;20053;-75
2022/10/30 06:05:10;;;;;;;15.73;10.05;;;12.70;99.90;;;;;;5127337;27;20071;-77
2022/10/30 06:07:36;;;;;;;23.15;10.65;;;12.70;99.90;;;;;;5141671;27;20092;-77
2022/10/30 06:10:01;;;;;;;23.45;11.30;;;12.70;99.90;;;;;;5129034;27;20097;-76
2022/10/30 06:12:27;;;;;;;25.13;10.40;;;12.70;99.90;;;;;;5144427;27;20034;-77
2022/10/30 06:14:53;;;;;;;23.08;10.23;;;12.60;99.90;;;;;;5151982;27;20035;-76
2022/10/30 06:17:18;;;;;;;23.27;10.35;;;12.60;99.90;;;;;;5105602;27;20119;-76
2022/10/30 06:19:44;;;;;;;19.48;11.07;;;12.60;99.90;;;;;;5146812;27;20039;-74
2022/10/30 06:22:10;;;;;;;18.88;11.45;;;13.30;99.90;;;;;;5124343;27;20096;-76
2022/10/30 06:24:35;;;;;;;22.58;12.02;;;12.60;99.90;;;;;;5096623;27;20043;-75
2022/10/30 06:27:01;;;;;;;17.35;10.80;;;13.20;99.90;;;;;;5128843;27;20386;-75
2022/10/30 06:29:28;;;;;;;23.80;11.25;;;13.30;99.90;;;;;;5140952;27;20118;-78
2022/10/30 06:31:54;;;;;;;26.70;12.25;;;12.50;99.90;;;;;;5128660;27;20520;-74
2022/10/30 06:34:19;;;;;;;19.33;10.75;;;12.50;99.90;;;;;;5106188;27;20039;-76
2022/10/30 06:36:45;;;;;;;21.65;10.77;;;12.50;99.90;;;;;;5147281;27;20043;-77
2022/10/30 06:39:10;;;;;;;21.73;11.60;;;12.90;99.90;;;;;;5105708;27;20041;-77
2022/10/30 06:41:36;;;;;;;18.60;11.73;;;12.50;99.90;;;;;;5128071;27;20046;-77
2022/10/30 06:44:02;;;;;;;20.63;12.15;;;13.00;99.90;;;;;;5143052;27;20038;-77
2022/10/30 06:46:28;;;;;;;29.17;11.18;;;12.50;99.90;;;;;;5119460;27;20050;-77
2022/10/30 06:48:54;;;;;;;18.77;10.93;;;13.40;99.90;;;;;;5123198;27;20039;-76
2022/10/30 06:51:20;;;;;;;22.17;11.75;;;12.70;99.90;;;;;;5124582;27;20047;-77
2022/10/30 06:53:45;;;;;;;20.77;12.55;;;12.50;99.90;;;;;;5103942;27;20039;-75
2022/10/30 06:56:11;;;;;;;21.20;11.82;;;12.50;99.90;;;;;;5123646;27;20039;-77
2022/10/30 06:58:38;;;;;;;23.40;11.63;;;13.00;99.90;;;;;;5144714;27;20085;-77
2022/10/30 07:01:07;;;;;;;21.92;11.52;;;12.50;99.90;;;;;;5122123;27;20075;-76
2022/10/30 07:03:34;;;;;;;16.83;11.00;;;13.60;99.90;;;;;;5125528;27;20050;-78
2022/10/30 07:05:59;;;;;;;17.20;11.07;;;12.50;99.90;;;;;;5141926;27;20416;-75
2022/10/30 07:08:25;;;;;;;21.33;11.68;;;12.50;99.90;;;;;;5143324;27;20046;-78
2022/10/30 07:10:51;;;;;;;18.90;11.45;;;13.30;99.90;;;;;;5108730;27;20088;-77
2022/10/30 07:13:17;;;;;;;21.27;12.35;;;12.50;99.90;;;;;;5124190;27;20043;-77
2022/10/30 07:15:43;;;;;;;29.60;12.52;;;13.40;99.90;;;;;;5106916;27;20054;-75
2022/10/30 07:18:09;;;;;;;18.55;11.23;;;12.50;99.90;;;;;;5122080;27;20066;-77
2022/10/30 07:20:35;;;;;;;28.13;11.48;;;12.50;99.90;;;;;;5143537;27;20038;-77
2022/10/30 07:23:02;;;;;;;21.50;11.68;;;12.50;99.90;;;;;;5105619;27;20149;-75
2022/10/30 07:25:29;;;;;;;24.02;12.68;;;12.50;99.90;;;;;;5143607;27;20508;-77
2022/10/30 07:27:56;;;;;;;26.05;12.45;;;12.50;99.90;;;;;;5145426;27;20522;-78
2022/10/30 07:30:24;;;;;;;25.77;14.25;;;12.60;99.90;;;;;;5143838;27;20046;-78
2022/10/30 07:33:02;;;;;;;18.38;12.38;;;12.50;99.90;;;;;;5110190;27;20457;-75
2022/10/30 07:35:28;;;;;;;26.95;12.13;;;12.60;99.90;;;;;;5125704;27;20291;-78
2022/10/30 07:37:54;;;;;;;20.50;11.90;;;12.60;99.90;;;;;;5116194;27;20043;-76
2022/10/30 07:40:20;;;;;;;21.58;11.43;;;13.40;99.90;;;;;;5106989;27;20075;-75
2022/10/30 07:42:46;;;;;;;20.65;12.82;;;12.60;99.90;;;;;;5126859;27;20047;-78
2022/10/30 07:45:12;;;;;;;32.03;11.73;;;13.20;99.90;;;;;;5141672;27;20872;-77
2022/10/30 07:47:40;;;;;;;25.27;11.15;;;12.60;99.90;;;;;;5139517;27;20039;-78
2022/10/30 07:50:06;;;;;;;23.02;12.88;;;12.70;99.90;;;;;;5147327;27;20042;-77
2022/10/30 07:52:32;;;;;;;22.17;11.93;;;12.70;99.90;;;;;;5121124;27;20035;-78
2022/10/30 07:54:57;;;;;;;21.10;11.75;;;12.80;99.90;;;;;;5147051;27;20047;-77
2022/10/30 07:57:23;;;;;;;33.25;12.88;;;12.70;99.90;;;;;;5146103;27;20552;-79
2022/10/30 07:59:49;;;;;;;20.42;11.93;;;12.70;99.90;;;;;;5104459;28;20049;-78
2022/10/30 08:02:14;;;;;;;24.83;13.85;;;12.80;99.90;;;;;;5124057;27;20129;-76
2022/10/30 08:04:40;;;;;;;21.45;12.27;;;12.80;99.90;;;;;;5141701;27;20375;-74
2022/10/30 08:07:05;;;;;;;28.45;13.82;;;12.80;99.90;;;;;;5153265;27;20038;-74
2022/10/30 08:09:31;;;;;;;23.67;12.70;;;12.80;99.90;;;;;;5127828;27;20088;-78
2022/10/30 08:11:57;;;;;;;22.25;13.90;;;13.20;99.90;;;;;;5147198;27;20042;-78
2022/10/30 08:14:22;;;;;;;20.55;13.23;;;12.90;99.90;;;;;;5146550;27;20046;-77
2022/10/30 08:16:50;;;;;;;25.67;13.25;;;12.80;99.90;;;;;;5129431;27;20064;-77
2022/10/30 08:19:15;;;;;;;29.08;13.93;;;13.00;99.90;;;;;;5146553;27;20057;-76
2022/10/30 08:21:41;;;;;;;26.42;14.35;;;13.00;99.90;;;;;;5129203;27;20039;-78
2022/10/30 08:24:07;;;;;;;26.65;13.98;;;13.10;99.90;;;;;;5146432;27;20514;-76
2022/10/30 08:26:34;;;;;;;25.10;13.93;;;13.20;99.90;;;;;;5146788;27;20409;-77
2022/10/30 08:29:00;;;;;;;23.52;14.32;;;13.20;99.90;;;;;;5127909;27;20122;-76
2022/10/30 08:31:25;;;;;;;23.30;14.05;;;13.40;99.90;;;;;;5126781;27;20578;-77
2022/10/30 08:33:51;;;;;;;22.02;13.95;;;13.40;99.90;;;;;;5127894;27;20425;-78
2022/10/30 08:36:16;;;;;;;30.58;14.98;;;13.50;99.90;;;;;;5127043;27;20047;-78
2022/10/30 08:38:42;;;;;;;26.17;14.35;;;13.50;99.90;;;;;;5118220;27;20478;-77
2022/10/30 08:41:08;;;;;;;21.13;14.35;;;13.60;99.90;;;;;;5128119;27;20073;-75
2022/10/30 08:43:33;;;;;;;25.42;14.20;;;13.60;99.90;;;;;;5127705;27;20575;-78
2022/10/30 08:45:59;;;;;;;31.95;14.75;;;13.70;99.90;;;;;;5144456;27;20043;-77
2022/10/30 08:48:25;;;;;;;21.85;13.63;;;13.70;99.90;;;;;;5144586;27;20083;-78
2022/10/30 08:50:51;;;;;;;24.48;13.43;;;13.80;99.90;;;;;;5129247;27;20123;-74
2022/10/30 08:53:17;;;;;;;18.92;12.82;;;13.80;99.90;;;;;;5135646;27;20039;-77
2022/10/30 08:55:42;;;;;;;27.85;13.85;;;14.50;99.90;;;;;;5107295;27;20486;-76
2022/10/30 08:58:08;;;;;;;26.90;13.93;;;13.90;99.90;;;;;;5108148;27;20049;-75
2022/10/30 09:00:34;;;;;;;29.88;15.40;;;13.90;99.90;;;;;;5132907;27;20043;-76
2022/10/30 09:03:00;;;;;;;29.73;14.68;;;14.00;99.90;;;;;;5144184;27;20062;-77
2022/10/30 09:05:26;;;;;;;21.88;14.70;;;14.50;99.90;;;;;;5133023;27;20470;-78
2022/10/30 09:07:56;;;;;;;31.38;15.18;;;14.90;99.90;;;;;;5144034;27;20095;-78
2022/10/30 09:10:22;;;;;;;20.27;13.73;;;15.00;99.90;;;;;;5146753;27;20410;-78
2022/10/30 09:12:53;;;;;;;24.10;13.32;;;14.70;99.90;;;;;;5130444;27;20055;-77
2022/10/30 09:15:18;;;;;;;21.85;13.18;;;14.30;99.90;;;;;;5107329;27;20043;-79
2022/10/30 09:17:44;;;;;;;20.10;13.45;;;14.40;99.90;;;;;;5129390;27;20091;-77
2022/10/30 09:20:10;;;;;;;26.55;14.48;;;14.40;99.90;;;;;;5123930;27;20035;-75
2022/10/30 09:22:40;;;;;;;29.73;13.18;;;14.50;99.90;;;;;;5131820;27;20043;-76
2022/10/30 09:25:06;;;;;;;33.15;18.08;;;14.70;99.90;;;;;;5142698;27;20054;-75
2022/10/30 09:27:39;;;;;;;22.83;13.43;;;14.80;99.90;;;;;;5108467;27;20586;-76
2022/10/30 09:30:05;;;;;;;20.45;13.68;;;14.80;99.90;;;;;;5110452;27;20399;-77
2022/10/30 09:32:31;;;;;;;29.98;13.65;;;14.80;99.90;;;;;;5144877;27;20084;-74
2022/10/30 09:34:57;;;;;;;24.65;12.35;;;15.10;99.90;;;;;;5126533;27;20072;-76
2022/10/30 09:37:23;;;;;;;22.45;14.07;;;15.00;99.90;;;;;;5123602;27;20027;-77
2022/10/30 09:39:49;;;;;;;27.85;12.95;;;15.00;99.90;;;;;;5148688;27;20039;-79
2022/10/30 09:42:21;;;;;;;25.67;15.05;;;15.10;99.90;;;;;;5105338;27;20041;-77
2022/10/30 09:45:05;;;;;;;21.80;13.68;;;15.10;99.90;;;;;;5140899;27;20482;-79
2022/10/30 09:47:46;;;;;;;24.50;13.48;;;15.20;99.90;;;;;;5124304;27;20293;-79
2022/10/30 09:50:31;;;;;;;21.83;13.20;;;15.40;99.90;;;;;;5107842;27;20034;-79
2022/10/30 09:53:02;;;;;;;;;;;15.40;99.90;;;;;;5141523;27;20065;-79
2022/10/30 09:55:37;;;;;;;25.70;13.60;;;15.50;99.90;;;;;;5105368;27;19923;-77
2022/10/30 09:58:21;;;;;;;23.55;13.23;;;15.60;99.90;;;;;;5151717;27;20046;-74
2022/10/30 10:01:00;;;;;;;24.02;13.57;;;15.70;99.90;;;;;;5122798;27;20047;-76
2022/10/30 10:03:32;;;;;;;28.90;14.23;;;15.70;99.90;;;;;;5123614;27;20070;-76
2022/10/30 10:06:00;;;;;;;22.90;12.75;;;16.50;99.90;;;;;;5121290;27;20088;-76
2022/10/30 10:08:36;;;;;;;27.90;13.82;;;15.80;99.90;;;;;;5108173;27;20031;-80
2022/10/30 10:11:15;;;;;;;26.88;13.30;;;16.30;99.90;;;;;;5111219;27;20035;-80
2022/10/30 10:13:50;;;;;;;27.08;13.52;;;15.80;99.90;;;;;;5129107;27;20054;-82
2022/10/30 10:16:32;;;;;;;24.35;12.50;;;15.90;99.90;;;;;;5122731;27;20110;-80
2022/10/30 10:19:25;;;;;;;21.50;14.00;;;16.00;99.90;;;;;;5146091;27;20163;-82
2022/10/30 10:21:58;;;;;;;25.42;13.13;;;16.00;99.90;;;;;;5127789;27;20043;-78
2022/10/30 10:24:29;;;;;;;24.20;13.38;;;17.10;99.90;;;;;;5123487;27;20050;-78
2022/10/30 10:27:03;;;;;;;20.38;12.32;;;16.10;99.90;;;;;;5128150;27;20107;-86
2022/10/30 10:29:47;;;;;;;20.63;13.00;;;16.20;99.90;;;;;;5107260;27;20444;-83
2022/10/30 10:32:39;;;;;;;25.15;13.40;;;16.20;99.90;;;;;;5110574;27;20138;-84
2022/10/30 10:35:20;;;;;;;26.52;13.38;;;16.20;99.90;;;;;;5102849;28;20131;-85
2022/10/30 10:38:01;;;;;;;27.17;12.52;;;16.30;99.90;;;;;;5104281;28;20122;-85
2022/10/30 10:40:58;;;;;;;22.15;13.65;;;16.30;99.90;;;;;;5098314;28;20436;-80
2022/10/30 10:43:42;;;;;;;25.63;12.63;;;16.40;99.90;;;;;;5102038;28;20554;-74
2022/10/30 10:46:33;;;;;;;24.75;13.00;;;16.50;99.90;;;;;;5096207;28;20043;-80
2022/10/30 10:49:20;;;;;;;24.52;12.95;;;16.50;99.90;;;;;;5081816;28;20039;-77
2022/10/30 10:52:08;;;;;;;25.05;12.20;;;16.50;99.90;;;;;;5100048;28;20496;-85
2022/10/30 10:55:14;;;;;;;23.80;12.55;;;16.60;99.90;;;;;;5089708;28;20051;-76
2022/10/30 10:57:42;;;;;;;24.25;12.93;;;16.60;99.90;;;;;;5103444;28;20047;-80
2022/10/30 11:00:22;;;;;;;27.48;11.75;;;17.10;99.90;;;;;;5101041;28;20075;-78
2022/10/30 11:02:51;;;;;;;20.10;11.30;;;16.80;99.90;;;;;;5102015;28;20049;-76
2022/10/30 11:05:23;;;;;;;23.08;11.55;;;16.90;99.90;;;;;;5105880;28;20031;-81
2022/10/30 11:07:49;;;;;;;23.60;12.15;;;17.00;99.90;;;;;;5085560;28;21110;-79
2022/10/30 11:10:18;;;;;;;20.98;11.30;;;17.10;99.90;;;;;;5107589;28;20035;-83
2022/10/30 11:12:43;;;;;;;20.33;10.50;;;17.80;99.90;;;;;;5101935;28;20039;-78
2022/10/30 11:15:46;;;;;;;17.42;10.38;;;17.20;99.90;;;;;;5102643;28;20532;-79
2022/10/30 11:18:14;;;;;;;23.60;11.38;;;17.20;99.90;;;;;;5101914;28;20050;-84
2022/10/30 11:20:58;;;;;;;26.65;11.07;;;17.30;99.90;;;;;;5106821;28;20075;-81
2022/10/30 11:23:33;;;;;;;18.48;10.15;;;17.40;99.90;;;;;;5082819;28;20546;-78
2022/10/30 11:26:00;;;;;;;21.25;9.75;;;17.50;99.90;;;;;;5076065;28;20106;-86
2022/10/30 11:29:03;;;;;;;17.10;8.88;;;17.60;99.90;;;;;;5085977;28;20040;-83
2022/10/30 11:31:36;;;;;;;19.70;8.45;;;17.90;99.90;;;;;;5095314;27;20383;-86
2022/10/30 11:34:37;;;;;;;19.90;9.03;;;17.70;99.90;;;;;;5102633;27;20055;-84
2022/10/30 11:37:04;;;;;;;17.58;7.25;;;17.80;99.90;;;;;;5122974;27;20520;-83
2022/10/30 11:39:34;;;;;;;16.52;7.53;;;18.20;99.90;;;;;;5106515;27;20043;-79
2022/10/30 11:42:05;;;;;;;14.02;7.85;;;17.40;99.90;;;;;;5144308;27;20095;-78
2022/10/30 11:44:38;;;;;;;15.55;7.75;;;18.10;99.90;;;;;;5143161;27;20039;-80
2022/10/30 11:47:05;;;;;;;16.17;8.32;;;18.20;99.90;;;;;;5107305;27;20095;-79
2022/10/30 11:49:34;;;;;;;22.98;8.18;;;18.10;99.90;;;;;;5125274;27;20043;-79
2022/10/30 11:52:00;;;;;;;16.13;8.20;;;18.70;99.90;;;;;;5138108;27;20157;-79
2022/10/30 11:54:26;;;;;;;21.95;9.30;;;18.10;99.90;;;;;;5137792;27;20495;-79
2022/10/30 11:56:53;;;;;;;15.40;7.68;;;18.10;99.90;;;;;;5127148;27;20110;-80
2022/10/30 11:59:21;;;;;;;16.88;8.55;;;18.10;99.90;;;;;;5138616;27;20086;-78
2022/10/30 12:01:59;;;;;;;21.10;8.38;;;18.10;99.90;;;;;;5144739;27;20353;-79
2022/10/30 12:04:26;;;;;;;19.45;8.35;;;18.30;99.90;;;;;;5120039;28;20048;-79
2022/10/30 12:07:28;;;;;;;16.38;7.55;;;18.30;99.90;;;;;;5110531;27;20126;-77
2022/10/30 12:09:56;;;;;;;18.38;7.28;;;18.50;99.90;;;;;;5061521;27;20050;-79
2022/10/30 12:12:26;;;;;;;14.63;6.80;;;18.30;99.90;;;;;;5125612;27;20415;-77
2022/10/30 12:14:53;;;;;;;19.65;7.05;;;18.40;99.90;;;;;;5121159;27;20070;-79
2022/10/30 12:17:20;;;;;;;13.35;7.15;;;18.50;99.90;;;;;;5142363;27;20363;-77
2022/10/30 12:19:54;;;;;;;18.88;6.53;;;18.50;99.90;;;;;;5139511;27;20061;-80
2022/10/30 12:22:33;;;;;;;17.73;6.40;;;18.50;99.90;;;;;;5123089;27;20447;-77
2022/10/30 12:25:13;;;;;;;14.38;6.40;;;18.50;99.90;;;;;;5141037;27;20043;-79
2022/10/30 12:27:39;;;;;;;15.45;7.35;;;18.60;99.90;;;;;;5141261;27;20485;-78
2022/10/30 12:30:15;;;;;;;19.83;7.65;;;18.50;99.90;;;;;;5122408;27;20038;-78
2022/10/30 12:32:51;;;;;;;15.25;6.43;;;18.60;99.90;;;;;;5144749;27;20043;-79
2022/10/30 12:35:43;;;;;;;17.35;7.28;;;18.60;99.90;;;;;;5116197;27;20038;-79
2022/10/30 12:38:23;;;;;;;10.20;6.28;;;18.60;99.90;;;;;;5111060;27;20154;-79
2022/10/30 12:41:03;;;;;;;17.40;6.82;;;18.60;99.90;;;;;;5145374;27;20046;-75
2022/10/30 12:43:33;;;;;;;18.90;7.72;;;18.60;99.90;;;;;;5137216;27;20552;-76